PANO2: Poteau River At Panama

Data processed at Tue Aug 21 2018 22:35


All information presented herein is the property of the government of the United States of America and may be revised or deleted at any time without prior notice.
Dissemination of this information without the expressed written consent of the Public Affairs Office, Tulsa District U.S. Army Corps of Engineers is strictly prohibited.
These data are gathered electronically and, as presented, have not undergone any form of quality control. These data are not guaranteed to be valid or correct.
Go to home page.
Go to station list.

Upstream stations:

Downstream station:
Previous Day
Next Day
Current Day
    
SHEF ID:       PANO2     Poteau River near Panama, OK
STATION TYPE:  

               PRECIP     STAGE  RIV-FLOW  BAT-LOAD
                   in        ft       cfs      volt
              Ccp-Rev   Ccp-Rev   Ccp-Rev   Ccp-Rev
(US/Central)
08/21 00:00      0.00     13.34      2091     12.81
08/21 01:00      0.00     13.91      2297     12.81
08/21 02:00      0.00     14.47      2505     12.81
08/21 03:00      0.00     14.94      2684     12.81
08/21 04:00      0.00     15.36      2848     12.81
08/21 05:00      0.00     15.73      2995     12.81
08/21 06:00      0.00     16.05      3124     12.81
08/21 07:00      0.00     16.34      3243     12.73
08/21 08:00      0.00     16.59      3346     12.81
08/21 09:00      0.00     16.80      3434     12.89
08/21 10:00      0.00     16.99      3515     12.97
08/21 11:00      0.00     17.16      3589     13.13
08/21 12:00      0.00     17.30      3650     13.21
08/21 13:00      0.00     17.41      3699     13.21
08/21 14:00      0.00     17.51      3743     13.21
08/21 15:00      0.00     17.61      3787     13.05
08/21 16:00      0.00     17.70      3828     12.97
08/21 17:00      0.00     17.79      3868     12.97
08/21 18:00      0.00     17.89      3913     12.97
08/21 19:00      0.00     17.99      3958     12.89
08/21 20:00      0.00     18.11      4013     12.89
08/21 21:00      0.00     18.22      4063     12.89
08/21 22:00      ----      ----      ----      ----
08/21 23:00      ----      ----      ----      ----